sensor_id;sensor_type;location;lat;lon;timestamp;P1;durP1;ratioP1;P2;durP2;ratioP2
5981;SDS011;3018;48.730;9.336;2023-04-28T00:00:46;4.15;;;3.85;;
5981;SDS011;3018;48.730;9.336;2023-04-28T00:03:12;5.15;;;3.92;;
5981;SDS011;3018;48.730;9.336;2023-04-28T00:05:38;12.55;;;4.47;;
5981;SDS011;3018;48.730;9.336;2023-04-28T00:08:05;4.35;;;3.67;;
5981;SDS011;3018;48.730;9.336;2023-04-28T00:10:32;6.45;;;4.07;;
5981;SDS011;3018;48.730;9.336;2023-04-28T00:12:59;5.97;;;4.00;;
5981;SDS011;3018;48.730;9.336;2023-04-28T00:15:25;4.40;;;3.50;;
5981;SDS011;3018;48.730;9.336;2023-04-28T00:17:51;5.80;;;3.97;;
5981;SDS011;3018;48.730;9.336;2023-04-28T00:20:18;6.20;;;3.60;;
5981;SDS011;3018;48.730;9.336;2023-04-28T00:22:44;4.97;;;3.72;;
5981;SDS011;3018;48.730;9.336;2023-04-28T00:25:10;5.45;;;4.30;;
5981;SDS011;3018;48.730;9.336;2023-04-28T00:27:38;5.38;;;3.90;;
5981;SDS011;3018;48.730;9.336;2023-04-28T00:30:05;8.02;;;4.13;;
5981;SDS011;3018;48.730;9.336;2023-04-28T00:32:31;7.80;;;4.35;;
5981;SDS011;3018;48.730;9.336;2023-04-28T00:34:57;5.53;;;3.85;;
5981;SDS011;3018;48.730;9.336;2023-04-28T00:37:24;5.10;;;4.35;;
5981;SDS011;3018;48.730;9.336;2023-04-28T00:39:53;6.65;;;4.25;;
5981;SDS011;3018;48.730;9.336;2023-04-28T00:42:19;6.40;;;3.88;;
5981;SDS011;3018;48.730;9.336;2023-04-28T00:44:47;4.95;;;4.55;;
5981;SDS011;3018;48.730;9.336;2023-04-28T00:47:13;5.25;;;4.72;;
5981;SDS011;3018;48.730;9.336;2023-04-28T00:49:41;4.63;;;4.05;;
5981;SDS011;3018;48.730;9.336;2023-04-28T00:52:07;5.10;;;4.13;;
5981;SDS011;3018;48.730;9.336;2023-04-28T00:54:34;8.68;;;4.60;;
5981;SDS011;3018;48.730;9.336;2023-04-28T00:57:01;5.22;;;3.88;;
5981;SDS011;3018;48.730;9.336;2023-04-28T00:59:28;4.40;;;4.00;;
5981;SDS011;3018;48.730;9.336;2023-04-28T01:01:56;7.90;;;4.72;;
5981;SDS011;3018;48.730;9.336;2023-04-28T01:04:24;5.15;;;4.32;;
5981;SDS011;3018;48.730;9.336;2023-04-28T01:06:51;5.63;;;4.35;;
5981;SDS011;3018;48.730;9.336;2023-04-28T01:09:18;5.00;;;3.83;;
5981;SDS011;3018;48.730;9.336;2023-04-28T01:11:45;5.15;;;4.38;;
5981;SDS011;3018;48.730;9.336;2023-04-28T01:14:11;8.60;;;4.03;;
5981;SDS011;3018;48.730;9.336;2023-04-28T01:16:37;4.43;;;4.03;;
5981;SDS011;3018;48.730;9.336;2023-04-28T01:19:06;5.15;;;3.67;;
5981;SDS011;3018;48.730;9.336;2023-04-28T01:21:33;4.38;;;3.97;;
5981;SDS011;3018;48.730;9.336;2023-04-28T01:24:00;3.42;;;3.22;;
5981;SDS011;3018;48.730;9.336;2023-04-28T01:26:27;6.10;;;3.85;;
5981;SDS011;3018;48.730;9.336;2023-04-28T01:28:53;5.75;;;3.63;;
5981;SDS011;3018;48.730;9.336;2023-04-28T01:31:19;4.40;;;3.17;;
5981;SDS011;3018;48.730;9.336;2023-04-28T01:33:45;4.93;;;3.55;;
5981;SDS011;3018;48.730;9.336;2023-04-28T01:36:11;5.82;;;3.80;;
5981;SDS011;3018;48.730;9.336;2023-04-28T01:38:38;5.38;;;3.70;;
5981;SDS011;3018;48.730;9.336;2023-04-28T01:41:05;6.75;;;4.15;;
5981;SDS011;3018;48.730;9.336;2023-04-28T01:43:32;9.00;;;4.10;;
5981;SDS011;3018;48.730;9.336;2023-04-28T01:45:58;4.40;;;4.00;;
5981;SDS011;3018;48.730;9.336;2023-04-28T01:48:24;4.35;;;4.03;;
5981;SDS011;3018;48.730;9.336;2023-04-28T01:50:50;8.75;;;4.10;;
5981;SDS011;3018;48.730;9.336;2023-04-28T01:53:17;5.18;;;3.78;;
5981;SDS011;3018;48.730;9.336;2023-04-28T01:55:44;4.32;;;3.88;;
5981;SDS011;3018;48.730;9.336;2023-04-28T01:58:12;5.80;;;4.50;;
5981;SDS011;3018;48.730;9.336;2023-04-28T02:00:38;4.20;;;3.92;;
5981;SDS011;3018;48.730;9.336;2023-04-28T02:03:04;4.60;;;4.20;;
5981;SDS011;3018;48.730;9.336;2023-04-28T02:05:31;4.63;;;4.03;;
5981;SDS011;3018;48.730;9.336;2023-04-28T02:07:57;4.30;;;3.90;;
5981;SDS011;3018;48.730;9.336;2023-04-28T02:10:23;5.70;;;4.60;;
5981;SDS011;3018;48.730;9.336;2023-04-28T02:12:49;4.85;;;4.45;;
5981;SDS011;3018;48.730;9.336;2023-04-28T02:15:17;5.35;;;4.53;;
5981;SDS011;3018;48.730;9.336;2023-04-28T02:17:43;7.93;;;5.05;;
5981;SDS011;3018;48.730;9.336;2023-04-28T02:20:10;6.15;;;4.43;;
5981;SDS011;3018;48.730;9.336;2023-04-28T02:22:38;6.30;;;4.93;;
5981;SDS011;3018;48.730;9.336;2023-04-28T02:25:04;5.00;;;4.50;;
5981;SDS011;3018;48.730;9.336;2023-04-28T02:27:31;7.70;;;4.70;;
5981;SDS011;3018;48.730;9.336;2023-04-28T02:29:57;6.75;;;5.20;;
5981;SDS011;3018;48.730;9.336;2023-04-28T02:32:25;8.68;;;4.88;;
5981;SDS011;3018;48.730;9.336;2023-04-28T02:34:51;5.72;;;4.80;;
5981;SDS011;3018;48.730;9.336;2023-04-28T02:37:18;7.25;;;4.97;;
5981;SDS011;3018;48.730;9.336;2023-04-28T02:39:44;5.85;;;5.15;;
5981;SDS011;3018;48.730;9.336;2023-04-28T02:42:10;9.00;;;5.50;;
5981;SDS011;3018;48.730;9.336;2023-04-28T02:44:37;5.38;;;4.97;;
5981;SDS011;3018;48.730;9.336;2023-04-28T02:47:03;5.78;;;4.78;;
5981;SDS011;3018;48.730;9.336;2023-04-28T02:49:31;6.75;;;4.90;;
5981;SDS011;3018;48.730;9.336;2023-04-28T02:51:57;6.57;;;4.20;;
5981;SDS011;3018;48.730;9.336;2023-04-28T02:54:23;10.13;;;4.95;;
5981;SDS011;3018;48.730;9.336;2023-04-28T02:56:52;7.10;;;4.38;;
5981;SDS011;3018;48.730;9.336;2023-04-28T02:59:19;6.38;;;5.07;;
5981;SDS011;3018;48.730;9.336;2023-04-28T03:01:45;8.40;;;4.40;;
5981;SDS011;3018;48.730;9.336;2023-04-28T03:04:12;8.27;;;4.72;;
5981;SDS011;3018;48.730;9.336;2023-04-28T03:06:39;6.05;;;4.60;;
5981;SDS011;3018;48.730;9.336;2023-04-28T03:09:06;6.97;;;4.68;;
5981;SDS011;3018;48.730;9.336;2023-04-28T03:11:32;5.20;;;4.50;;
5981;SDS011;3018;48.730;9.336;2023-04-28T03:13:58;7.63;;;5.03;;
5981;SDS011;3018;48.730;9.336;2023-04-28T03:16:25;8.32;;;5.82;;
5981;SDS011;3018;48.730;9.336;2023-04-28T03:18:51;7.70;;;5.57;;
5981;SDS011;3018;48.730;9.336;2023-04-28T03:21:17;8.00;;;6.38;;
5981;SDS011;3018;48.730;9.336;2023-04-28T03:23:45;7.55;;;5.57;;
5981;SDS011;3018;48.730;9.336;2023-04-28T03:26:11;6.35;;;5.25;;
5981;SDS011;3018;48.730;9.336;2023-04-28T03:28:37;6.38;;;5.20;;
5981;SDS011;3018;48.730;9.336;2023-04-28T03:31:04;6.47;;;5.10;;
5981;SDS011;3018;48.730;9.336;2023-04-28T03:33:30;4.88;;;4.47;;
5981;SDS011;3018;48.730;9.336;2023-04-28T03:35:56;6.40;;;5.10;;
5981;SDS011;3018;48.730;9.336;2023-04-28T03:38:22;5.78;;;4.82;;
5981;SDS011;3018;48.730;9.336;2023-04-28T03:40:50;5.28;;;4.78;;
5981;SDS011;3018;48.730;9.336;2023-04-28T03:43:16;5.03;;;4.63;;
5981;SDS011;3018;48.730;9.336;2023-04-28T03:45:42;6.00;;;4.45;;
5981;SDS011;3018;48.730;9.336;2023-04-28T03:48:09;5.30;;;4.80;;
5981;SDS011;3018;48.730;9.336;2023-04-28T03:50:35;4.88;;;4.40;;
5981;SDS011;3018;48.730;9.336;2023-04-28T03:53:01;7.97;;;5.10;;
5981;SDS011;3018;48.730;9.336;2023-04-28T03:55:29;6.70;;;5.10;;
5981;SDS011;3018;48.730;9.336;2023-04-28T03:57:56;6.63;;;5.53;;
5981;SDS011;3018;48.730;9.336;2023-04-28T04:00:22;6.93;;;5.22;;
5981;SDS011;3018;48.730;9.336;2023-04-28T04:02:49;5.88;;;4.90;;
5981;SDS011;3018;48.730;9.336;2023-04-28T04:05:15;6.95;;;5.55;;
5981;SDS011;3018;48.730;9.336;2023-04-28T04:07:41;5.20;;;4.80;;
5981;SDS011;3018;48.730;9.336;2023-04-28T04:10:08;5.03;;;4.63;;
5981;SDS011;3018;48.730;9.336;2023-04-28T04:12:34;5.50;;;5.20;;
5981;SDS011;3018;48.730;9.336;2023-04-28T04:15:02;5.97;;;5.40;;
5981;SDS011;3018;48.730;9.336;2023-04-28T04:17:28;5.43;;;5.03;;
5981;SDS011;3018;48.730;9.336;2023-04-28T04:19:54;6.30;;;5.72;;
5981;SDS011;3018;48.730;9.336;2023-04-28T04:22:21;5.97;;;5.38;;
5981;SDS011;3018;48.730;9.336;2023-04-28T04:24:47;6.20;;;5.60;;
5981;SDS011;3018;48.730;9.336;2023-04-28T04:27:13;5.90;;;5.32;;
5981;SDS011;3018;48.730;9.336;2023-04-28T04:29:40;6.05;;;5.45;;
5981;SDS011;3018;48.730;9.336;2023-04-28T04:32:07;5.03;;;4.57;;
5981;SDS011;3018;48.730;9.336;2023-04-28T04:34:34;6.50;;;5.90;;
5981;SDS011;3018;48.730;9.336;2023-04-28T04:37:00;6.68;;;5.65;;
5981;SDS011;3018;48.730;9.336;2023-04-28T04:39:26;6.47;;;5.32;;
5981;SDS011;3018;48.730;9.336;2023-04-28T04:41:52;7.63;;;6.18;;
5981;SDS011;3018;48.730;9.336;2023-04-28T04:44:19;9.52;;;6.18;;
5981;SDS011;3018;48.730;9.336;2023-04-28T04:46:45;7.15;;;5.40;;
5981;SDS011;3018;48.730;9.336;2023-04-28T04:49:13;5.97;;;5.47;;
5981;SDS011;3018;48.730;9.336;2023-04-28T04:51:39;6.32;;;5.72;;
5981;SDS011;3018;48.730;9.336;2023-04-28T04:54:05;7.35;;;5.80;;
5981;SDS011;3018;48.730;9.336;2023-04-28T04:56:32;8.35;;;6.10;;
5981;SDS011;3018;48.730;9.336;2023-04-28T04:58:58;6.00;;;5.40;;
5981;SDS011;3018;48.730;9.336;2023-04-28T05:01:24;5.95;;;5.40;;
5981;SDS011;3018;48.730;9.336;2023-04-28T05:03:51;8.48;;;6.00;;
5981;SDS011;3018;48.730;9.336;2023-04-28T05:06:18;8.63;;;6.20;;
5981;SDS011;3018;48.730;9.336;2023-04-28T05:08:45;6.95;;;6.35;;
5981;SDS011;3018;48.730;9.336;2023-04-28T05:11:11;9.85;;;6.45;;
5981;SDS011;3018;48.730;9.336;2023-04-28T05:13:37;14.00;;;6.35;;
5981;SDS011;3018;48.730;9.336;2023-04-28T05:16:05;7.18;;;6.55;;
5981;SDS011;3018;48.730;9.336;2023-04-28T05:18:31;7.28;;;5.97;;
5981;SDS011;3018;48.730;9.336;2023-04-28T05:20:57;11.30;;;7.13;;
5981;SDS011;3018;48.730;9.336;2023-04-28T05:23:25;8.20;;;6.82;;
5981;SDS011;3018;48.730;9.336;2023-04-28T05:25:51;8.73;;;7.80;;
5981;SDS011;3018;48.730;9.336;2023-04-28T05:28:17;9.40;;;7.15;;
5981;SDS011;3018;48.730;9.336;2023-04-28T05:30:44;9.85;;;7.30;;
5981;SDS011;3018;48.730;9.336;2023-04-28T05:33:10;11.25;;;7.50;;
5981;SDS011;3018;48.730;9.336;2023-04-28T05:35:36;10.25;;;7.30;;
5981;SDS011;3018;48.730;9.336;2023-04-28T05:38:02;11.93;;;8.10;;
5981;SDS011;3018;48.730;9.336;2023-04-28T05:40:30;11.00;;;8.23;;
5981;SDS011;3018;48.730;9.336;2023-04-28T05:42:56;9.88;;;7.00;;
5981;SDS011;3018;48.730;9.336;2023-04-28T05:45:23;11.52;;;7.40;;
5981;SDS011;3018;48.730;9.336;2023-04-28T05:47:49;10.95;;;6.80;;
5981;SDS011;3018;48.730;9.336;2023-04-28T05:50:16;10.55;;;7.00;;
5981;SDS011;3018;48.730;9.336;2023-04-28T05:52:42;10.15;;;7.95;;
5981;SDS011;3018;48.730;9.336;2023-04-28T05:55:08;9.98;;;7.43;;
5981;SDS011;3018;48.730;9.336;2023-04-28T05:57:36;9.18;;;7.55;;
5981;SDS011;3018;48.730;9.336;2023-04-28T06:00:03;9.35;;;6.80;;
5981;SDS011;3018;48.730;9.336;2023-04-28T06:02:29;9.00;;;6.72;;
5981;SDS011;3018;48.730;9.336;2023-04-28T06:04:56;9.68;;;7.28;;
5981;SDS011;3018;48.730;9.336;2023-04-28T06:07:22;15.38;;;7.20;;
5981;SDS011;3018;48.730;9.336;2023-04-28T06:09:48;8.55;;;6.47;;
5981;SDS011;3018;48.730;9.336;2023-04-28T06:12:14;12.75;;;7.10;;
5981;SDS011;3018;48.730;9.336;2023-04-28T06:14:42;12.00;;;7.63;;
5981;SDS011;3018;48.730;9.336;2023-04-28T06:17:08;12.35;;;7.40;;
5981;SDS011;3018;48.730;9.336;2023-04-28T06:19:34;12.18;;;8.15;;
5981;SDS011;3018;48.730;9.336;2023-04-28T06:22:01;9.95;;;7.80;;
5981;SDS011;3018;48.730;9.336;2023-04-28T06:24:27;7.95;;;6.63;;
5981;SDS011;3018;48.730;9.336;2023-04-28T06:26:54;9.52;;;7.28;;
5981;SDS011;3018;48.730;9.336;2023-04-28T06:29:20;10.77;;;7.65;;
5981;SDS011;3018;48.730;9.336;2023-04-28T06:31:49;8.23;;;6.93;;
5981;SDS011;3018;48.730;9.336;2023-04-28T06:34:16;9.15;;;7.70;;
5981;SDS011;3018;48.730;9.336;2023-04-28T06:36:42;8.38;;;7.57;;
5981;SDS011;3018;48.730;9.336;2023-04-28T06:39:08;12.10;;;7.65;;
5981;SDS011;3018;48.730;9.336;2023-04-28T06:41:35;9.55;;;7.68;;
5981;SDS011;3018;48.730;9.336;2023-04-28T06:44:01;11.20;;;7.32;;
5981;SDS011;3018;48.730;9.336;2023-04-28T06:46:27;8.50;;;7.18;;
5981;SDS011;3018;48.730;9.336;2023-04-28T06:48:55;9.70;;;6.85;;
5981;SDS011;3018;48.730;9.336;2023-04-28T06:51:21;9.27;;;6.80;;
5981;SDS011;3018;48.730;9.336;2023-04-28T06:53:47;7.57;;;6.78;;
5981;SDS011;3018;48.730;9.336;2023-04-28T06:56:17;10.80;;;7.32;;
5981;SDS011;3018;48.730;9.336;2023-04-28T06:58:43;10.60;;;7.72;;
5981;SDS011;3018;48.730;9.336;2023-04-28T07:01:10;9.57;;;7.95;;
5981;SDS011;3018;48.730;9.336;2023-04-28T07:03:36;9.63;;;7.35;;
5981;SDS011;3018;48.730;9.336;2023-04-28T07:06:05;11.07;;;7.95;;
5981;SDS011;3018;48.730;9.336;2023-04-28T07:08:31;10.30;;;8.18;;
5981;SDS011;3018;48.730;9.336;2023-04-28T07:10:57;8.50;;;7.70;;
5981;SDS011;3018;48.730;9.336;2023-04-28T07:13:23;11.65;;;7.95;;
5981;SDS011;3018;48.730;9.336;2023-04-28T07:15:50;14.63;;;7.75;;
5981;SDS011;3018;48.730;9.336;2023-04-28T07:18:16;10.57;;;7.45;;
5981;SDS011;3018;48.730;9.336;2023-04-28T07:20:42;9.20;;;7.47;;
5981;SDS011;3018;48.730;9.336;2023-04-28T07:23:10;15.77;;;8.38;;
5981;SDS011;3018;48.730;9.336;2023-04-28T07:25:36;15.20;;;8.15;;
5981;SDS011;3018;48.730;9.336;2023-04-28T07:28:04;14.98;;;9.18;;
5981;SDS011;3018;48.730;9.336;2023-04-28T07:30:30;12.93;;;8.02;;
5981;SDS011;3018;48.730;9.336;2023-04-28T07:32:57;13.90;;;8.32;;
5981;SDS011;3018;48.730;9.336;2023-04-28T07:35:23;12.30;;;8.15;;
5981;SDS011;3018;48.730;9.336;2023-04-28T07:37:49;12.82;;;8.55;;
5981;SDS011;3018;48.730;9.336;2023-04-28T07:40:17;11.18;;;7.88;;
5981;SDS011;3018;48.730;9.336;2023-04-28T07:42:43;10.77;;;8.70;;
5981;SDS011;3018;48.730;9.336;2023-04-28T07:45:10;13.52;;;9.60;;
5981;SDS011;3018;48.730;9.336;2023-04-28T07:47:36;15.38;;;8.95;;
5981;SDS011;3018;48.730;9.336;2023-04-28T07:50:03;11.75;;;8.75;;
5981;SDS011;3018;48.730;9.336;2023-04-28T07:52:30;10.88;;;8.35;;
5981;SDS011;3018;48.730;9.336;2023-04-28T07:54:59;12.23;;;8.73;;
5981;SDS011;3018;48.730;9.336;2023-04-28T07:57:28;11.15;;;8.57;;
5981;SDS011;3018;48.730;9.336;2023-04-28T07:59:55;14.98;;;9.02;;
5981;SDS011;3018;48.730;9.336;2023-04-28T08:02:21;16.92;;;9.93;;
5981;SDS011;3018;48.730;9.336;2023-04-28T08:04:47;13.43;;;8.70;;
5981;SDS011;3018;48.730;9.336;2023-04-28T08:07:14;14.45;;;8.63;;
5981;SDS011;3018;48.730;9.336;2023-04-28T08:09:40;11.27;;;8.38;;
5981;SDS011;3018;48.730;9.336;2023-04-28T08:12:11;12.55;;;8.27;;
5981;SDS011;3018;48.730;9.336;2023-04-28T08:14:38;9.23;;;8.15;;
5981;SDS011;3018;48.730;9.336;2023-04-28T08:17:04;14.50;;;9.50;;
5981;SDS011;3018;48.730;9.336;2023-04-28T08:19:31;12.45;;;9.02;;
5981;SDS011;3018;48.730;9.336;2023-04-28T08:21:57;8.05;;;7.25;;
5981;SDS011;3018;48.730;9.336;2023-04-28T08:24:24;9.02;;;8.13;;
5981;SDS011;3018;48.730;9.336;2023-04-28T08:26:50;10.52;;;8.95;;
5981;SDS011;3018;48.730;9.336;2023-04-28T08:29:16;9.40;;;7.65;;
5981;SDS011;3018;48.730;9.336;2023-04-28T08:31:44;9.80;;;7.30;;
5981;SDS011;3018;48.730;9.336;2023-04-28T08:34:10;7.82;;;6.57;;
5981;SDS011;3018;48.730;9.336;2023-04-28T08:36:36;7.50;;;6.80;;
5981;SDS011;3018;48.730;9.336;2023-04-28T08:39:02;6.68;;;6.18;;
5981;SDS011;3018;48.730;9.336;2023-04-28T08:41:32;8.05;;;6.80;;
5981;SDS011;3018;48.730;9.336;2023-04-28T08:43:59;7.35;;;6.55;;
5981;SDS011;3018;48.730;9.336;2023-04-28T08:46:26;6.63;;;6.03;;
5981;SDS011;3018;48.730;9.336;2023-04-28T08:48:55;10.30;;;6.57;;
5981;SDS011;3018;48.730;9.336;2023-04-28T08:51:24;8.52;;;6.22;;
5981;SDS011;3018;48.730;9.336;2023-04-28T08:53:50;8.35;;;6.10;;
5981;SDS011;3018;48.730;9.336;2023-04-28T08:56:18;6.50;;;5.55;;
5981;SDS011;3018;48.730;9.336;2023-04-28T08:58:47;6.95;;;6.25;;
5981;SDS011;3018;48.730;9.336;2023-04-28T09:01:14;6.35;;;5.78;;
5981;SDS011;3018;48.730;9.336;2023-04-28T09:03:40;6.30;;;5.70;;
5981;SDS011;3018;48.730;9.336;2023-04-28T09:06:08;6.45;;;4.70;;
5981;SDS011;3018;48.730;9.336;2023-04-28T09:08:34;5.95;;;5.35;;
5981;SDS011;3018;48.730;9.336;2023-04-28T09:11:06;6.00;;;5.10;;
5981;SDS011;3018;48.730;9.336;2023-04-28T09:13:33;5.68;;;5.18;;
5981;SDS011;3018;48.730;9.336;2023-04-28T09:16:00;6.25;;;5.00;;
5981;SDS011;3018;48.730;9.336;2023-04-28T09:18:27;5.85;;;5.25;;
5981;SDS011;3018;48.730;9.336;2023-04-28T09:21:01;6.20;;;5.70;;
5981;SDS011;3018;48.730;9.336;2023-04-28T09:23:28;8.27;;;5.28;;
5981;SDS011;3018;48.730;9.336;2023-04-28T09:25:55;6.88;;;6.18;;
5981;SDS011;3018;48.730;9.336;2023-04-28T09:28:22;7.45;;;6.68;;
5981;SDS011;3018;48.730;9.336;2023-04-28T09:30:48;9.63;;;6.65;;
5981;SDS011;3018;48.730;9.336;2023-04-28T09:33:14;8.68;;;7.78;;
5981;SDS011;3018;48.730;9.336;2023-04-28T09:35:41;12.63;;;9.95;;
5981;SDS011;3018;48.730;9.336;2023-04-28T09:38:09;12.73;;;8.98;;
5981;SDS011;3018;48.730;9.336;2023-04-28T09:40:49;11.73;;;9.52;;
5981;SDS011;3018;48.730;9.336;2023-04-28T09:43:25;10.88;;;8.70;;
5981;SDS011;3018;48.730;9.336;2023-04-28T09:45:52;10.75;;;8.55;;
5981;SDS011;3018;48.730;9.336;2023-04-28T09:48:25;11.95;;;7.70;;
5981;SDS011;3018;48.730;9.336;2023-04-28T09:50:52;6.68;;;6.07;;
5981;SDS011;3018;48.730;9.336;2023-04-28T09:53:18;10.25;;;7.13;;
5981;SDS011;3018;48.730;9.336;2023-04-28T09:55:46;9.30;;;7.57;;
5981;SDS011;3018;48.730;9.336;2023-04-28T09:58:15;8.52;;;7.72;;
5981;SDS011;3018;48.730;9.336;2023-04-28T10:00:42;7.70;;;6.90;;
5981;SDS011;3018;48.730;9.336;2023-04-28T10:03:08;8.20;;;7.43;;
5981;SDS011;3018;48.730;9.336;2023-04-28T10:05:35;7.65;;;7.05;;
5981;SDS011;3018;48.730;9.336;2023-04-28T10:08:02;7.70;;;6.90;;
5981;SDS011;3018;48.730;9.336;2023-04-28T10:10:29;7.90;;;6.82;;
5981;SDS011;3018;48.730;9.336;2023-04-28T10:12:55;9.15;;;6.28;;
5981;SDS011;3018;48.730;9.336;2023-04-28T10:15:23;7.05;;;6.45;;
5981;SDS011;3018;48.730;9.336;2023-04-28T10:17:49;6.60;;;6.07;;
5981;SDS011;3018;48.730;9.336;2023-04-28T10:20:16;5.28;;;4.88;;
5981;SDS011;3018;48.730;9.336;2023-04-28T10:22:50;8.77;;;5.68;;
5981;SDS011;3018;48.730;9.336;2023-04-28T10:25:25;5.82;;;5.20;;
5981;SDS011;3018;48.730;9.336;2023-04-28T10:27:51;7.18;;;5.07;;
5981;SDS011;3018;48.730;9.336;2023-04-28T10:30:19;5.80;;;5.22;;
5981;SDS011;3018;48.730;9.336;2023-04-28T10:32:47;4.85;;;4.55;;
5981;SDS011;3018;48.730;9.336;2023-04-28T10:38:03;5.60;;;4.35;;
5981;SDS011;3018;48.730;9.336;2023-04-28T10:40:30;5.38;;;4.57;;
5981;SDS011;3018;48.730;9.336;2023-04-28T10:42:57;6.03;;;5.35;;
5981;SDS011;3018;48.730;9.336;2023-04-28T10:48:21;5.20;;;4.80;;
5981;SDS011;3018;48.730;9.336;2023-04-28T10:56:23;7.93;;;4.45;;
5981;SDS011;3018;48.730;9.336;2023-04-28T10:58:51;5.30;;;4.53;;
5981;SDS011;3018;48.730;9.336;2023-04-28T11:01:24;5.38;;;4.85;;
5981;SDS011;3018;48.730;9.336;2023-04-28T11:03:52;4.47;;;4.15;;
5981;SDS011;3018;48.730;9.336;2023-04-28T11:06:24;5.13;;;4.45;;
5981;SDS011;3018;48.730;9.336;2023-04-28T11:08:51;3.58;;;3.28;;
5981;SDS011;3018;48.730;9.336;2023-04-28T11:11:20;3.10;;;2.80;;
5981;SDS011;3018;48.730;9.336;2023-04-28T11:13:47;2.67;;;2.47;;
5981;SDS011;3018;48.730;9.336;2023-04-28T11:16:14;3.63;;;3.20;;
5981;SDS011;3018;48.730;9.336;2023-04-28T11:18:47;3.47;;;3.28;;
5981;SDS011;3018;48.730;9.336;2023-04-28T11:21:15;2.65;;;2.55;;
5981;SDS011;3018;48.730;9.336;2023-04-28T11:23:42;3.33;;;3.13;;
5981;SDS011;3018;48.730;9.336;2023-04-28T11:26:09;4.90;;;2.80;;
5981;SDS011;3018;48.730;9.336;2023-04-28T11:28:35;3.28;;;2.78;;
5981;SDS011;3018;48.730;9.336;2023-04-28T11:31:11;2.55;;;1.70;;
5981;SDS011;3018;48.730;9.336;2023-04-28T11:33:37;1.77;;;1.65;;
5981;SDS011;3018;48.730;9.336;2023-04-28T11:36:04;3.55;;;1.80;;
5981;SDS011;3018;48.730;9.336;2023-04-28T11:38:42;3.13;;;2.17;;
5981;SDS011;3018;48.730;9.336;2023-04-28T11:41:09;2.30;;;2.08;;
5981;SDS011;3018;48.730;9.336;2023-04-28T11:43:35;4.00;;;2.47;;
5981;SDS011;3018;48.730;9.336;2023-04-28T11:46:01;2.00;;;2.00;;
5981;SDS011;3018;48.730;9.336;2023-04-28T11:48:27;2.10;;;2.00;;
5981;SDS011;3018;48.730;9.336;2023-04-28T11:50:54;1.85;;;1.75;;
5981;SDS011;3018;48.730;9.336;2023-04-28T11:53:20;1.60;;;1.48;;
5981;SDS011;3018;48.730;9.336;2023-04-28T11:55:48;1.77;;;1.60;;
5981;SDS011;3018;48.730;9.336;2023-04-28T11:58:18;1.60;;;1.60;;
5981;SDS011;3018;48.730;9.336;2023-04-28T12:03:27;1.60;;;1.60;;
5981;SDS011;3018;48.730;9.336;2023-04-28T12:05:53;1.90;;;1.80;;
5981;SDS011;3018;48.730;9.336;2023-04-28T12:08:26;2.03;;;1.90;;
5981;SDS011;3018;48.730;9.336;2023-04-28T12:11:07;2.22;;;1.70;;
5981;SDS011;3018;48.730;9.336;2023-04-28T12:13:34;3.25;;;1.40;;
5981;SDS011;3018;48.730;9.336;2023-04-28T12:16:02;1.30;;;1.30;;
5981;SDS011;3018;48.730;9.336;2023-04-28T12:18:29;1.52;;;1.48;;
5981;SDS011;3018;48.730;9.336;2023-04-28T12:20:56;1.70;;;1.60;;
5981;SDS011;3018;48.730;9.336;2023-04-28T12:23:27;1.63;;;1.52;;
5981;SDS011;3018;48.730;9.336;2023-04-28T12:25:54;1.42;;;1.42;;
5981;SDS011;3018;48.730;9.336;2023-04-28T12:28:22;1.48;;;1.45;;
5981;SDS011;3018;48.730;9.336;2023-04-28T12:30:49;1.42;;;1.42;;
5981;SDS011;3018;48.730;9.336;2023-04-28T12:33:22;1.50;;;1.40;;
5981;SDS011;3018;48.730;9.336;2023-04-28T12:35:49;1.20;;;1.20;;
5981;SDS011;3018;48.730;9.336;2023-04-28T12:38:15;2.88;;;1.40;;
5981;SDS011;3018;48.730;9.336;2023-04-28T12:40:42;1.30;;;1.25;;
5981;SDS011;3018;48.730;9.336;2023-04-28T12:43:08;2.08;;;1.30;;
5981;SDS011;3018;48.730;9.336;2023-04-28T12:45:36;1.45;;;1.38;;
5981;SDS011;3018;48.730;9.336;2023-04-28T12:48:03;2.38;;;2.28;;
5981;SDS011;3018;48.730;9.336;2023-04-28T12:50:29;1.52;;;1.38;;
5981;SDS011;3018;48.730;9.336;2023-04-28T12:52:57;0.60;;;0.60;;
5981;SDS011;3018;48.730;9.336;2023-04-28T12:55:23;0.95;;;0.73;;
5981;SDS011;3018;48.730;9.336;2023-04-28T12:57:50;0.80;;;0.80;;
5981;SDS011;3018;48.730;9.336;2023-04-28T13:00:16;1.38;;;1.02;;
5981;SDS011;3018;48.730;9.336;2023-04-28T13:02:48;1.13;;;1.02;;
5981;SDS011;3018;48.730;9.336;2023-04-28T13:05:14;0.70;;;0.70;;
5981;SDS011;3018;48.730;9.336;2023-04-28T13:07:40;1.45;;;0.70;;
5981;SDS011;3018;48.730;9.336;2023-04-28T13:10:07;0.85;;;0.50;;
5981;SDS011;3018;48.730;9.336;2023-04-28T13:12:34;0.50;;;0.50;;
5981;SDS011;3018;48.730;9.336;2023-04-28T13:15:00;1.38;;;0.70;;
5981;SDS011;3018;48.730;9.336;2023-04-28T13:17:26;0.60;;;0.60;;
5981;SDS011;3018;48.730;9.336;2023-04-28T13:19:54;1.10;;;0.70;;
5981;SDS011;3018;48.730;9.336;2023-04-28T13:22:20;1.05;;;0.70;;
5981;SDS011;3018;48.730;9.336;2023-04-28T13:24:47;0.80;;;0.80;;
5981;SDS011;3018;48.730;9.336;2023-04-28T13:27:13;0.60;;;0.60;;
5981;SDS011;3018;48.730;9.336;2023-04-28T13:29:39;0.98;;;0.60;;
5981;SDS011;3018;48.730;9.336;2023-04-28T13:32:05;0.98;;;0.70;;
5981;SDS011;3018;48.730;9.336;2023-04-28T13:34:32;3.78;;;0.77;;
5981;SDS011;3018;48.730;9.336;2023-04-28T13:37:00;0.85;;;0.63;;
5981;SDS011;3018;48.730;9.336;2023-04-28T13:39:26;1.77;;;1.02;;
5981;SDS011;3018;48.730;9.336;2023-04-28T13:41:52;1.90;;;0.73;;
5981;SDS011;3018;48.730;9.336;2023-04-28T13:44:18;0.77;;;0.77;;
5981;SDS011;3018;48.730;9.336;2023-04-28T13:46:45;0.85;;;0.77;;
5981;SDS011;3018;48.730;9.336;2023-04-28T13:49:11;0.63;;;0.63;;
5981;SDS011;3018;48.730;9.336;2023-04-28T13:51:37;0.95;;;0.60;;
5981;SDS011;3018;48.730;9.336;2023-04-28T13:54:05;0.60;;;0.40;;
5981;SDS011;3018;48.730;9.336;2023-04-28T13:56:34;0.45;;;0.45;;
5981;SDS011;3018;48.730;9.336;2023-04-28T13:59:01;2.70;;;0.70;;
5981;SDS011;3018;48.730;9.336;2023-04-28T14:01:27;0.70;;;0.70;;
5981;SDS011;3018;48.730;9.336;2023-04-28T14:03:54;0.50;;;0.50;;
5981;SDS011;3018;48.730;9.336;2023-04-28T14:06:20;2.10;;;0.47;;
5981;SDS011;3018;48.730;9.336;2023-04-28T14:08:47;1.15;;;0.55;;
5981;SDS011;3018;48.730;9.336;2023-04-28T14:11:14;1.42;;;0.50;;
5981;SDS011;3018;48.730;9.336;2023-04-28T14:13:40;0.30;;;0.30;;
5981;SDS011;3018;48.730;9.336;2023-04-28T14:16:07;2.65;;;0.40;;
5981;SDS011;3018;48.730;9.336;2023-04-28T14:18:33;0.47;;;0.30;;
5981;SDS011;3018;48.730;9.336;2023-04-28T14:21:01;0.60;;;0.60;;
5981;SDS011;3018;48.730;9.336;2023-04-28T14:23:31;0.50;;;0.50;;
5981;SDS011;3018;48.730;9.336;2023-04-28T14:25:58;1.90;;;0.60;;
5981;SDS011;3018;48.730;9.336;2023-04-28T14:28:25;0.60;;;0.60;;
5981;SDS011;3018;48.730;9.336;2023-04-28T14:30:53;1.00;;;0.60;;
5981;SDS011;3018;48.730;9.336;2023-04-28T14:33:19;2.28;;;0.88;;
5981;SDS011;3018;48.730;9.336;2023-04-28T14:35:45;1.17;;;0.95;;
5981;SDS011;3018;48.730;9.336;2023-04-28T14:38:12;0.93;;;0.80;;
5981;SDS011;3018;48.730;9.336;2023-04-28T14:40:38;1.55;;;1.08;;
5981;SDS011;3018;48.730;9.336;2023-04-28T14:43:06;0.80;;;0.80;;
5981;SDS011;3018;48.730;9.336;2023-04-28T14:45:35;0.93;;;0.80;;
5981;SDS011;3018;48.730;9.336;2023-04-28T14:48:02;0.52;;;0.52;;
5981;SDS011;3018;48.730;9.336;2023-04-28T14:50:28;0.80;;;0.80;;
5981;SDS011;3018;48.730;9.336;2023-04-28T14:52:54;0.80;;;0.80;;
5981;SDS011;3018;48.730;9.336;2023-04-28T14:55:23;0.95;;;0.90;;
5981;SDS011;3018;48.730;9.336;2023-04-28T14:57:50;2.70;;;0.80;;
5981;SDS011;3018;48.730;9.336;2023-04-28T15:00:16;0.82;;;0.82;;
5981;SDS011;3018;48.730;9.336;2023-04-28T15:02:44;0.98;;;0.90;;
5981;SDS011;3018;48.730;9.336;2023-04-28T15:05:10;0.85;;;0.82;;
5981;SDS011;3018;48.730;9.336;2023-04-28T15:07:37;0.57;;;0.50;;
5981;SDS011;3018;48.730;9.336;2023-04-28T15:10:04;2.25;;;0.73;;
5981;SDS011;3018;48.730;9.336;2023-04-28T15:12:30;1.13;;;0.50;;
5981;SDS011;3018;48.730;9.336;2023-04-28T15:14:58;1.25;;;0.60;;
5981;SDS011;3018;48.730;9.336;2023-04-28T15:17:24;0.50;;;0.50;;
5981;SDS011;3018;48.730;9.336;2023-04-28T15:19:52;0.32;;;0.32;;
5981;SDS011;3018;48.730;9.336;2023-04-28T15:22:18;0.88;;;0.65;;
5981;SDS011;3018;48.730;9.336;2023-04-28T15:24:45;0.30;;;0.30;;